sensor_id;sensor_type;location;lat;lon;timestamp;pressure;altitude;pressure_sealevel;temperature;humidity
30598;BME280;17365;48.878;8.334;2023-04-30T00:00:38;100408.53;;;12.06;98.56
30598;BME280;17365;48.878;8.334;2023-04-30T00:03:04;100406.78;;;12.14;98.03
30598;BME280;17365;48.878;8.334;2023-04-30T00:05:29;100412.81;;;11.86;99.86
30598;BME280;17365;48.878;8.334;2023-04-30T00:07:55;100412.84;;;11.97;99.45
30598;BME280;17365;48.878;8.334;2023-04-30T00:10:20;100413.72;;;12.06;98.61
30598;BME280;17365;48.878;8.334;2023-04-30T00:12:45;100425.88;;;12.16;97.61
30598;BME280;17365;48.878;8.334;2023-04-30T00:15:10;100425.84;;;12.18;97.32
30598;BME280;17365;48.878;8.334;2023-04-30T00:17:36;100421.53;;;12.15;97.61
30598;BME280;17365;48.878;8.334;2023-04-30T00:20:01;100425.88;;;12.13;97.83
30598;BME280;17365;48.878;8.334;2023-04-30T00:22:26;100429.31;;;12.11;97.89
30598;BME280;17365;48.878;8.334;2023-04-30T00:24:52;100421.53;;;12.03;98.42
30598;BME280;17365;48.878;8.334;2023-04-30T00:27:17;100424.13;;;12.12;97.67
30598;BME280;17365;48.878;8.334;2023-04-30T00:29:42;100425.00;;;12.14;97.30
30598;BME280;17365;48.878;8.334;2023-04-30T00:32:07;100414.59;;;12.04;98.31
30598;BME280;17365;48.878;8.334;2023-04-30T00:34:32;100408.44;;;11.70;100.00
30598;BME280;17365;48.878;8.334;2023-04-30T00:36:58;100412.72;;;11.49;100.00
30598;BME280;17365;48.878;8.334;2023-04-30T00:39:23;100416.25;;;11.68;100.00
30598;BME280;17365;48.878;8.334;2023-04-30T00:41:48;100417.09;;;11.65;100.00
30598;BME280;17365;48.878;8.334;2023-04-30T00:44:13;100420.63;;;11.83;100.00
30598;BME280;17365;48.878;8.334;2023-04-30T00:46:38;100417.13;;;11.70;100.00
30598;BME280;17365;48.878;8.334;2023-04-30T00:49:04;100418.88;;;11.88;100.00
30598;BME280;17365;48.878;8.334;2023-04-30T00:51:30;100419.78;;;11.81;99.95
30598;BME280;17365;48.878;8.334;2023-04-30T00:53:56;100418.03;;;11.86;99.61
30598;BME280;17365;48.878;8.334;2023-04-30T00:56:22;100409.38;;;11.91;99.09
30598;BME280;17365;48.878;8.334;2023-04-30T00:58:47;100416.31;;;12.03;98.09
30598;BME280;17365;48.878;8.334;2023-04-30T01:01:13;100411.97;;;11.94;98.62
30598;BME280;17365;48.878;8.334;2023-04-30T01:03:39;100412.84;;;11.83;98.95
30598;BME280;17365;48.878;8.334;2023-04-30T01:06:06;100408.53;;;11.91;98.36
30598;BME280;17365;48.878;8.334;2023-04-30T01:08:31;100405.03;;;11.98;97.50
30598;BME280;17365;48.878;8.334;2023-04-30T01:11:04;100403.31;;;11.94;97.80
30598;BME280;17365;48.878;8.334;2023-04-30T01:13:33;100398.13;;;12.05;96.93
30598;BME280;17365;48.878;8.334;2023-04-30T01:18:38;100395.44;;;11.57;98.85
30598;BME280;17365;48.878;8.334;2023-04-30T01:21:04;100393.72;;;11.72;98.60
30598;BME280;17365;48.878;8.334;2023-04-30T01:23:47;100389.41;;;11.69;98.58
30598;BME280;17365;48.878;8.334;2023-04-30T01:26:14;100398.00;;;11.54;99.72
30598;BME280;17365;48.878;8.334;2023-04-30T01:28:42;100393.69;;;11.59;99.21
30598;BME280;17365;48.878;8.334;2023-04-30T01:31:18;100394.56;;;11.61;99.22
30598;BME280;17365;48.878;8.334;2023-04-30T01:33:43;100391.06;;;11.53;99.62
30598;BME280;17365;48.878;8.334;2023-04-30T01:36:20;100391.97;;;11.61;99.04
30598;BME280;17365;48.878;8.334;2023-04-30T01:39:03;100387.63;;;11.65;98.80
30598;BME280;17365;48.878;8.334;2023-04-30T01:46:30;100391.03;;;11.40;100.00
30598;BME280;17365;48.878;8.334;2023-04-30T01:49:12;100384.81;;;10.95;100.00
30598;BME280;17365;48.878;8.334;2023-04-30T01:51:40;100390.97;;;11.20;100.00
30598;BME280;17365;48.878;8.334;2023-04-30T01:56:40;100390.16;;;11.28;100.00
30598;BME280;17365;48.878;8.334;2023-04-30T01:59:08;100386.59;;;11.05;100.00
30598;BME280;17365;48.878;8.334;2023-04-30T02:01:34;100380.63;;;11.21;100.00
30598;BME280;17365;48.878;8.334;2023-04-30T02:03:59;100383.25;;;11.35;100.00
30598;BME280;17365;48.878;8.334;2023-04-30T02:06:25;100383.25;;;11.33;100.00
30598;BME280;17365;48.878;8.334;2023-04-30T02:08:54;100378.94;;;11.34;100.00
30598;BME280;17365;48.878;8.334;2023-04-30T02:11:20;100385.81;;;11.21;100.00
30598;BME280;17365;48.878;8.334;2023-04-30T02:13:48;100384.09;;;11.22;100.00
30598;BME280;17365;48.878;8.334;2023-04-30T02:16:13;100386.59;;;11.06;100.00
30598;BME280;17365;48.878;8.334;2023-04-30T02:18:38;100387.53;;;11.24;100.00
30598;BME280;17365;48.878;8.334;2023-04-30T02:21:03;100393.59;;;11.23;100.00
30598;BME280;17365;48.878;8.334;2023-04-30T02:23:28;100388.28;;;10.91;100.00
30598;BME280;17365;48.878;8.334;2023-04-30T02:25:54;100384.75;;;10.84;100.00
30598;BME280;17365;48.878;8.334;2023-04-30T02:28:19;100379.69;;;11.05;100.00
30598;BME280;17365;48.878;8.334;2023-04-30T02:30:44;100383.19;;;11.12;100.00
30598;BME280;17365;48.878;8.334;2023-04-30T02:33:10;100376.28;;;11.26;100.00
30598;BME280;17365;48.878;8.334;2023-04-30T02:35:36;100378.75;;;10.91;100.00
30598;BME280;17365;48.878;8.334;2023-04-30T02:38:01;100379.69;;;11.07;100.00
30598;BME280;17365;48.878;8.334;2023-04-30T02:40:26;100389.25;;;11.19;100.00
30598;BME280;17365;48.878;8.334;2023-04-30T02:42:52;100383.03;;;10.86;100.00
30598;BME280;17365;48.878;8.334;2023-04-30T02:45:18;100384.91;;;11.10;100.00
30598;BME280;17365;48.878;8.334;2023-04-30T02:47:44;100385.72;;;11.01;100.00
30598;BME280;17365;48.878;8.334;2023-04-30T02:50:09;100384.03;;;11.17;100.00
30598;BME280;17365;48.878;8.334;2023-04-30T02:52:34;100383.06;;;10.91;100.00
30598;BME280;17365;48.878;8.334;2023-04-30T02:54:59;100381.34;;;10.90;100.00
30598;BME280;17365;48.878;8.334;2023-04-30T02:57:25;100380.44;;;10.80;100.00
30598;BME280;17365;48.878;8.334;2023-04-30T02:59:50;100382.03;;;10.63;100.00
30598;BME280;17365;48.878;8.334;2023-04-30T03:02:15;100372.53;;;10.57;100.00
30598;BME280;17365;48.878;8.334;2023-04-30T03:04:44;100371.78;;;10.87;100.00
30598;BME280;17365;48.878;8.334;2023-04-30T03:07:10;100375.28;;;10.89;100.00
30598;BME280;17365;48.878;8.334;2023-04-30T03:09:35;100371.78;;;10.79;100.00
30598;BME280;17365;48.878;8.334;2023-04-30T03:12:00;100364.84;;;10.80;100.00
30598;BME280;17365;48.878;8.334;2023-04-30T03:14:26;100378.75;;;10.90;100.00
30598;BME280;17365;48.878;8.334;2023-04-30T03:16:51;100375.22;;;10.77;100.00
30598;BME280;17365;48.878;8.334;2023-04-30T03:19:16;100376.13;;;10.85;100.00
30598;BME280;17365;48.878;8.334;2023-04-30T03:21:46;100364.81;;;10.75;100.00
30598;BME280;17365;48.878;8.334;2023-04-30T03:24:11;100380.25;;;10.49;100.00
30598;BME280;17365;48.878;8.334;2023-04-30T03:26:36;100375.91;;;10.47;100.00
30598;BME280;17365;48.878;8.334;2023-04-30T03:29:01;100372.56;;;10.65;100.00
30598;BME280;17365;48.878;8.334;2023-04-30T03:31:26;100373.38;;;10.58;100.00
30598;BME280;17365;48.878;8.334;2023-04-30T03:33:52;100370.84;;;10.67;100.00
30598;BME280;17365;48.878;8.334;2023-04-30T03:36:17;100372.53;;;10.59;100.00
30598;BME280;17365;48.878;8.334;2023-04-30T03:38:42;100363.00;;;10.59;100.00
30598;BME280;17365;48.878;8.334;2023-04-30T03:41:07;100363.06;;;10.67;100.00
30598;BME280;17365;48.878;8.334;2023-04-30T03:43:32;100369.94;;;10.57;100.00
30598;BME280;17365;48.878;8.334;2023-04-30T03:45:57;100364.72;;;10.54;100.00
30598;BME280;17365;48.878;8.334;2023-04-30T03:48:23;100368.94;;;10.37;100.00
30598;BME280;17365;48.878;8.334;2023-04-30T03:50:48;100371.59;;;10.47;100.00
30598;BME280;17365;48.878;8.334;2023-04-30T03:53:13;100367.31;;;10.54;100.00
30598;BME280;17365;48.878;8.334;2023-04-30T03:55:39;100375.94;;;10.53;100.00
30598;BME280;17365;48.878;8.334;2023-04-30T03:58:04;100380.22;;;10.43;100.00
30598;BME280;17365;48.878;8.334;2023-04-30T04:00:29;100372.47;;;10.53;100.00
30598;BME280;17365;48.878;8.334;2023-04-30T04:02:56;100363.81;;;10.47;100.00
30598;BME280;17365;48.878;8.334;2023-04-30T04:05:21;100368.19;;;10.55;100.00
30598;BME280;17365;48.878;8.334;2023-04-30T04:07:47;100375.09;;;10.57;100.00
30598;BME280;17365;48.878;8.334;2023-04-30T04:10:12;100371.59;;;10.46;100.00
30598;BME280;17365;48.878;8.334;2023-04-30T04:12:37;100375.91;;;10.47;100.00
30598;BME280;17365;48.878;8.334;2023-04-30T04:15:02;100371.34;;;10.17;100.00
30598;BME280;17365;48.878;8.334;2023-04-30T04:17:28;100372.38;;;10.33;100.00
30598;BME280;17365;48.878;8.334;2023-04-30T04:19:53;100369.78;;;10.39;100.00
30598;BME280;17365;48.878;8.334;2023-04-30T04:22:18;100378.34;;;10.27;100.00
30598;BME280;17365;48.878;8.334;2023-04-30T04:24:43;100375.91;;;10.48;100.00
30598;BME280;17365;48.878;8.334;2023-04-30T04:27:09;100378.38;;;10.30;100.00
30598;BME280;17365;48.878;8.334;2023-04-30T04:29:34;100385.34;;;10.34;100.00
30598;BME280;17365;48.878;8.334;2023-04-30T04:31:59;100371.44;;;10.23;100.00
30598;BME280;17365;48.878;8.334;2023-04-30T04:34:26;100383.31;;;10.03;100.00
30598;BME280;17365;48.878;8.334;2023-04-30T04:36:51;100380.13;;;10.31;100.00
30598;BME280;17365;48.878;8.334;2023-04-30T04:39:17;100386.16;;;10.30;100.00
30598;BME280;17365;48.878;8.334;2023-04-30T04:41:42;100384.28;;;10.12;100.00
30598;BME280;17365;48.878;8.334;2023-04-30T04:44:07;100384.28;;;10.17;100.00
30598;BME280;17365;48.878;8.334;2023-04-30T04:46:33;100385.28;;;10.30;100.00
30598;BME280;17365;48.878;8.334;2023-04-30T04:48:58;100384.50;;;10.41;99.85
30598;BME280;17365;48.878;8.334;2023-04-30T04:51:24;100387.13;;;10.43;99.87
30598;BME280;17365;48.878;8.334;2023-04-30T04:53:49;100388.78;;;10.32;100.00
30598;BME280;17365;48.878;8.334;2023-04-30T04:56:15;100392.34;;;10.50;99.49
30598;BME280;17365;48.878;8.334;2023-04-30T04:58:40;100382.78;;;10.40;100.00
30598;BME280;17365;48.878;8.334;2023-04-30T05:01:05;100388.59;;;10.10;100.00
30598;BME280;17365;48.878;8.334;2023-04-30T05:03:31;100392.28;;;10.38;99.85
30598;BME280;17365;48.878;8.334;2023-04-30T05:05:57;100392.25;;;10.32;99.72
30598;BME280;17365;48.878;8.334;2023-04-30T05:08:22;100386.16;;;10.30;100.00
30598;BME280;17365;48.878;8.334;2023-04-30T05:10:47;100395.88;;;10.62;99.41
30598;BME280;17365;48.878;8.334;2023-04-30T05:13:12;100390.75;;;10.68;97.52
30598;BME280;17365;48.878;8.334;2023-04-30T05:15:37;100387.34;;;10.81;95.82
30598;BME280;17365;48.878;8.334;2023-04-30T05:18:03;100390.88;;;10.98;93.85
30598;BME280;17365;48.878;8.334;2023-04-30T05:20:28;100391.88;;;11.22;92.17
30598;BME280;17365;48.878;8.334;2023-04-30T05:22:53;100391.00;;;11.21;91.65
30598;BME280;17365;48.878;8.334;2023-04-30T05:25:18;100393.56;;;11.18;92.04
30598;BME280;17365;48.878;8.334;2023-04-30T05:27:43;100389.19;;;11.06;91.70
30598;BME280;17365;48.878;8.334;2023-04-30T05:30:09;100381.44;;;11.20;91.66
30598;BME280;17365;48.878;8.334;2023-04-30T05:32:34;100398.81;;;11.27;91.17
30598;BME280;17365;48.878;8.334;2023-04-30T05:34:59;100394.44;;;11.13;90.79
30598;BME280;17365;48.878;8.334;2023-04-30T05:37:25;100389.31;;;11.37;90.24
30598;BME280;17365;48.878;8.334;2023-04-30T05:39:50;100392.81;;;11.51;89.39
30598;BME280;17365;48.878;8.334;2023-04-30T05:42:17;100391.06;;;11.46;88.64
30598;BME280;17365;48.878;8.334;2023-04-30T05:44:43;100391.06;;;11.53;87.98
30598;BME280;17365;48.878;8.334;2023-04-30T05:47:08;100389.38;;;11.57;87.70
30598;BME280;17365;48.878;8.334;2023-04-30T05:49:33;100396.38;;;12.19;85.19
30598;BME280;17365;48.878;8.334;2023-04-30T05:51:58;100397.25;;;12.32;83.55
30598;BME280;17365;48.878;8.334;2023-04-30T05:54:24;100393.78;;;12.11;83.48
30598;BME280;17365;48.878;8.334;2023-04-30T05:56:49;100398.09;;;12.40;82.17
30598;BME280;17365;48.878;8.334;2023-04-30T05:59:14;100405.00;;;12.56;81.36
30598;BME280;17365;48.878;8.334;2023-04-30T06:01:39;100399.84;;;12.22;82.03
30598;BME280;17365;48.878;8.334;2023-04-30T06:04:05;100403.34;;;12.24;81.97
30598;BME280;17365;48.878;8.334;2023-04-30T06:06:31;100402.44;;;12.41;82.02
30598;BME280;17365;48.878;8.334;2023-04-30T06:08:56;100406.75;;;12.56;81.63
30598;BME280;17365;48.878;8.334;2023-04-30T06:11:21;100394.59;;;12.70;81.12
30598;BME280;17365;48.878;8.334;2023-04-30T06:13:47;100404.16;;;12.54;81.51
30598;BME280;17365;48.878;8.334;2023-04-30T06:16:13;100404.97;;;12.82;80.14
30598;BME280;17365;48.878;8.334;2023-04-30T06:18:38;100394.56;;;12.68;80.01
30598;BME280;17365;48.878;8.334;2023-04-30T06:21:03;100402.34;;;12.79;80.13
30598;BME280;17365;48.878;8.334;2023-04-30T06:23:28;100400.59;;;12.90;79.16
30598;BME280;17365;48.878;8.334;2023-04-30T06:25:54;100400.56;;;12.98;79.79
30598;BME280;17365;48.878;8.334;2023-04-30T06:28:19;100391.94;;;12.87;79.14
30598;BME280;17365;48.878;8.334;2023-04-30T06:30:44;100393.72;;;12.72;79.88
30598;BME280;17365;48.878;8.334;2023-04-30T06:33:09;100394.56;;;12.80;79.43
30598;BME280;17365;48.878;8.334;2023-04-30T06:35:35;100410.13;;;12.99;79.05
30598;BME280;17365;48.878;8.334;2023-04-30T06:38:00;100405.78;;;13.05;78.63
30598;BME280;17365;48.878;8.334;2023-04-30T06:40:25;100401.38;;;13.13;78.15
30598;BME280;17365;48.878;8.334;2023-04-30T06:42:50;100404.84;;;13.28;77.60
30598;BME280;17365;48.878;8.334;2023-04-30T06:45:15;100410.84;;;13.42;77.08
30598;BME280;17365;48.878;8.334;2023-04-30T06:47:41;100413.31;;;13.66;77.01
30598;BME280;17365;48.878;8.334;2023-04-30T06:50:07;100415.09;;;13.63;75.52
30598;BME280;17365;48.878;8.334;2023-04-30T06:52:32;100402.91;;;13.63;76.40
30598;BME280;17365;48.878;8.334;2023-04-30T06:54:58;100409.06;;;13.52;76.23
30598;BME280;17365;48.878;8.334;2023-04-30T06:57:23;100404.25;;;14.19;74.43
30598;BME280;17365;48.878;8.334;2023-04-30T06:59:49;100399.97;;;14.11;74.51
30598;BME280;17365;48.878;8.334;2023-04-30T07:02:15;100397.41;;;14.08;72.45
30598;BME280;17365;48.878;8.334;2023-04-30T07:04:40;100406.88;;;14.18;72.42
30598;BME280;17365;48.878;8.334;2023-04-30T07:07:05;100409.81;;;13.72;73.69
30598;BME280;17365;48.878;8.334;2023-04-30T07:09:31;100405.31;;;13.94;73.26
30598;BME280;17365;48.878;8.334;2023-04-30T07:11:56;100401.78;;;13.99;73.52
30598;BME280;17365;48.878;8.334;2023-04-30T07:14:22;100399.84;;;14.24;73.21
30598;BME280;17365;48.878;8.334;2023-04-30T07:16:51;100406.50;;;14.64;72.76
30598;BME280;17365;48.878;8.334;2023-04-30T07:19:16;100407.66;;;14.29;71.53
30598;BME280;17365;48.878;8.334;2023-04-30T07:21:41;100399.13;;;14.04;71.77
30598;BME280;17365;48.878;8.334;2023-04-30T07:24:06;100406.97;;;14.06;72.67
30598;BME280;17365;48.878;8.334;2023-04-30T07:26:31;100399.91;;;14.18;72.59
30598;BME280;17365;48.878;8.334;2023-04-30T07:28:57;100394.59;;;14.26;72.67
30598;BME280;17365;48.878;8.334;2023-04-30T07:31:22;100398.66;;;14.61;70.60
30598;BME280;17365;48.878;8.334;2023-04-30T07:33:47;100395.41;;;14.36;70.81
30598;BME280;17365;48.878;8.334;2023-04-30T07:36:14;100388.44;;;14.35;71.01
30598;BME280;17365;48.878;8.334;2023-04-30T07:38:39;100389.09;;;14.63;70.13
30598;BME280;17365;48.878;8.334;2023-04-30T07:41:05;100398.78;;;14.51;69.03
30598;BME280;17365;48.878;8.334;2023-04-30T07:43:30;100400.31;;;14.72;69.09
30598;BME280;17365;48.878;8.334;2023-04-30T07:45:55;100396.94;;;14.60;68.77
30598;BME280;17365;48.878;8.334;2023-04-30T07:48:20;100400.84;;;15.00;68.31
30598;BME280;17365;48.878;8.334;2023-04-30T07:50:46;100396.56;;;14.93;67.68
30598;BME280;17365;48.878;8.334;2023-04-30T07:53:12;100392.94;;;15.08;67.80
30598;BME280;17365;48.878;8.334;2023-04-30T07:55:37;100389.75;;;14.80;67.24
30598;BME280;17365;48.878;8.334;2023-04-30T07:58:02;100388.00;;;14.85;66.64
30598;BME280;17365;48.878;8.334;2023-04-30T08:00:28;100384.09;;;15.17;65.73
30598;BME280;17365;48.878;8.334;2023-04-30T08:02:54;100395.50;;;15.11;65.84
30598;BME280;17365;48.878;8.334;2023-04-30T08:05:20;100393.69;;;15.19;64.49
30598;BME280;17365;48.878;8.334;2023-04-30T08:07:45;100410.09;;;15.27;64.02
30598;BME280;17365;48.878;8.334;2023-04-30T08:10:10;100402.44;;;15.13;63.69
30598;BME280;17365;48.878;8.334;2023-04-30T08:12:36;100411.31;;;15.00;62.88
30598;BME280;17365;48.878;8.334;2023-04-30T08:15:05;100395.84;;;14.80;62.43
30598;BME280;17365;48.878;8.334;2023-04-30T08:17:31;100395.97;;;15.43;62.37
30598;BME280;17365;48.878;8.334;2023-04-30T08:19:56;100401.06;;;15.51;63.08
30598;BME280;17365;48.878;8.334;2023-04-30T08:22:22;100403.94;;;15.34;60.36
30598;BME280;17365;48.878;8.334;2023-04-30T08:24:47;100407.34;;;15.41;61.97
30598;BME280;17365;48.878;8.334;2023-04-30T08:27:12;100403.41;;;15.76;59.26
30598;BME280;17365;48.878;8.334;2023-04-30T08:29:37;100400.63;;;15.86;57.70
30598;BME280;17365;48.878;8.334;2023-04-30T08:32:03;100392.25;;;16.17;57.26
30598;BME280;17365;48.878;8.334;2023-04-30T08:34:29;100395.22;;;15.97;58.66
30598;BME280;17365;48.878;8.334;2023-04-30T08:36:54;100392.81;;;16.36;58.71
30598;BME280;17365;48.878;8.334;2023-04-30T08:39:19;100399.41;;;16.09;56.59
30598;BME280;17365;48.878;8.334;2023-04-30T08:41:45;100396.34;;;15.79;56.44
30598;BME280;17365;48.878;8.334;2023-04-30T08:44:15;100390.06;;;15.91;55.15
30598;BME280;17365;48.878;8.334;2023-04-30T08:46:41;100381.84;;;16.14;56.86
30598;BME280;17365;48.878;8.334;2023-04-30T08:49:08;100384.94;;;16.37;55.65
30598;BME280;17365;48.878;8.334;2023-04-30T08:51:34;100391.19;;;16.28;54.49
30598;BME280;17365;48.878;8.334;2023-04-30T08:53:59;100390.22;;;15.82;53.57
30598;BME280;17365;48.878;8.334;2023-04-30T08:56:24;100394.31;;;15.96;52.92
30598;BME280;17365;48.878;8.334;2023-04-30T08:58:50;100387.34;;;15.98;52.44
30598;BME280;17365;48.878;8.334;2023-04-30T09:01:15;100389.94;;;16.00;54.63
30598;BME280;17365;48.878;8.334;2023-04-30T09:03:40;100398.34;;;16.17;53.93
30598;BME280;17365;48.878;8.334;2023-04-30T09:06:05;100384.81;;;16.45;53.99
30598;BME280;17365;48.878;8.334;2023-04-30T09:08:47;100387.66;;;16.33;53.70
30598;BME280;17365;48.878;8.334;2023-04-30T09:11:19;100391.03;;;15.84;54.35
30598;BME280;17365;48.878;8.334;2023-04-30T09:13:45;100387.50;;;16.40;54.28
30598;BME280;17365;48.878;8.334;2023-04-30T09:16:11;100381.84;;;16.63;51.85
30598;BME280;17365;48.878;8.334;2023-04-30T09:18:38;100380.22;;;16.57;52.00
30598;BME280;17365;48.878;8.334;2023-04-30T09:21:03;100374.34;;;16.91;51.17
30598;BME280;17365;48.878;8.334;2023-04-30T09:23:29;100371.81;;;16.88;48.71
30598;BME280;17365;48.878;8.334;2023-04-30T09:25:54;100375.75;;;16.63;48.90
30598;BME280;17365;48.878;8.334;2023-04-30T09:28:21;100380.47;;;16.92;49.64
30598;BME280;17365;48.878;8.334;2023-04-30T09:30:48;100371.31;;;16.65;48.42
30598;BME280;17365;48.878;8.334;2023-04-30T09:33:14;100394.03;;;16.64;48.39
30598;BME280;17365;48.878;8.334;2023-04-30T09:35:39;100383.22;;;16.84;46.75
30598;BME280;17365;48.878;8.334;2023-04-30T09:38:24;100380.41;;;16.95;45.43
30598;BME280;17365;48.878;8.334;2023-04-30T09:40:49;100377.78;;;16.95;45.65
30598;BME280;17365;48.878;8.334;2023-04-30T09:43:14;100382.69;;;16.64;49.97
30598;BME280;17365;48.878;8.334;2023-04-30T09:45:46;100388.66;;;16.73;52.99
30598;BME280;17365;48.878;8.334;2023-04-30T09:48:31;100376.38;;;16.78;53.62
30598;BME280;17365;48.878;8.334;2023-04-30T09:50:56;100375.31;;;16.85;53.38
30598;BME280;17365;48.878;8.334;2023-04-30T09:53:21;100379.81;;;17.24;52.62
30598;BME280;17365;48.878;8.334;2023-04-30T09:55:48;100386.84;;;16.78;53.03
30598;BME280;17365;48.878;8.334;2023-04-30T09:58:14;100374.56;;;16.80;52.99
30598;BME280;17365;48.878;8.334;2023-04-30T10:00:39;100375.09;;;16.98;52.20
30598;BME280;17365;48.878;8.334;2023-04-30T10:03:07;100376.44;;;16.24;54.08
30598;BME280;17365;48.878;8.334;2023-04-30T10:05:42;100377.31;;;16.25;53.92
30598;BME280;17365;48.878;8.334;2023-04-30T10:08:33;100379.56;;;16.45;53.18
30598;BME280;17365;48.878;8.334;2023-04-30T10:11:02;100376.03;;;16.47;52.96
30598;BME280;17365;48.878;8.334;2023-04-30T10:13:29;100366.97;;;16.65;52.63
30598;BME280;17365;48.878;8.334;2023-04-30T10:15:56;100371.19;;;17.17;50.57
30598;BME280;17365;48.878;8.334;2023-04-30T10:18:27;100368.50;;;16.78;51.65
30598;BME280;17365;48.878;8.334;2023-04-30T10:20:52;100362.31;;;17.24;50.93
30598;BME280;17365;48.878;8.334;2023-04-30T10:23:18;100360.31;;;16.94;50.96
30598;BME280;17365;48.878;8.334;2023-04-30T10:25:45;100349.91;;;17.31;50.44
30598;BME280;17365;48.878;8.334;2023-04-30T10:28:11;100354.19;;;16.95;50.32
30598;BME280;17365;48.878;8.334;2023-04-30T10:30:36;100351.38;;;16.59;50.18
30598;BME280;17365;48.878;8.334;2023-04-30T10:35:43;100339.50;;;16.87;49.92
30598;BME280;17365;48.878;8.334;2023-04-30T10:38:29;100331.31;;;17.41;48.48
30598;BME280;17365;48.878;8.334;2023-04-30T10:40:56;100333.28;;;17.33;47.69
30598;BME280;17365;48.878;8.334;2023-04-30T10:43:23;100333.78;;;17.49;48.12
30598;BME280;17365;48.878;8.334;2023-04-30T10:45:48;100334.53;;;17.54;47.65
30598;BME280;17365;48.878;8.334;2023-04-30T10:48:14;100331.56;;;17.71;46.95
30598;BME280;17365;48.878;8.334;2023-04-30T10:50:43;100333.13;;;17.39;47.13
30598;BME280;17365;48.878;8.334;2023-04-30T10:53:16;100333.16;;;17.38;47.31
30598;BME280;17365;48.878;8.334;2023-04-30T10:55:45;100340.38;;;17.67;46.38
30598;BME280;17365;48.878;8.334;2023-04-30T11:01:05;100323.78;;;18.02;44.70
30598;BME280;17365;48.878;8.334;2023-04-30T11:03:31;100324.81;;;17.59;43.65
30598;BME280;17365;48.878;8.334;2023-04-30T11:05:59;100325.66;;;18.31;43.11
30598;BME280;17365;48.878;8.334;2023-04-30T11:08:34;100317.97;;;17.89;43.13
30598;BME280;17365;48.878;8.334;2023-04-30T11:11:00;100327.72;;;17.84;43.13
30598;BME280;17365;48.878;8.334;2023-04-30T11:13:26;100326.84;;;18.19;42.08
30598;BME280;17365;48.878;8.334;2023-04-30T11:15:51;100314.06;;;17.71;43.58
30598;BME280;17365;48.878;8.334;2023-04-30T11:18:16;100308.56;;;18.49;43.02
30598;BME280;17365;48.878;8.334;2023-04-30T11:20:48;100314.03;;;18.40;42.42
30598;BME280;17365;48.878;8.334;2023-04-30T11:23:14;100310.03;;;17.92;41.60
30598;BME280;17365;48.878;8.334;2023-04-30T11:25:41;100304.16;;;17.83;42.95
30598;BME280;17365;48.878;8.334;2023-04-30T11:28:07;100299.63;;;18.54;42.56
30598;BME280;17365;48.878;8.334;2023-04-30T11:30:32;100297.25;;;18.45;42.17
30598;BME280;17365;48.878;8.334;2023-04-30T11:32:58;100289.63;;;18.36;43.14
30598;BME280;17365;48.878;8.334;2023-04-30T11:35:24;100302.53;;;18.11;43.62
30598;BME280;17365;48.878;8.334;2023-04-30T11:37:49;100293.06;;;18.06;43.80
30598;BME280;17365;48.878;8.334;2023-04-30T11:40:18;100285.28;;;18.02;43.42
30598;BME280;17365;48.878;8.334;2023-04-30T11:42:44;100280.66;;;18.11;43.24
30598;BME280;17365;48.878;8.334;2023-04-30T11:45:10;100290.72;;;17.95;42.99
30598;BME280;17365;48.878;8.334;2023-04-30T11:47:43;100283.81;;;18.56;43.03
30598;BME280;17365;48.878;8.334;2023-04-30T11:50:09;100287.16;;;18.30;44.07
30598;BME280;17365;48.878;8.334;2023-04-30T11:52:35;100273.97;;;17.99;41.81
30598;BME280;17365;48.878;8.334;2023-04-30T11:55:04;100285.88;;;18.14;42.51
30598;BME280;17365;48.878;8.334;2023-04-30T11:57:33;100283.56;;;18.01;41.81
30598;BME280;17365;48.878;8.334;2023-04-30T12:00:06;100289.44;;;18.42;42.29
30598;BME280;17365;48.878;8.334;2023-04-30T12:02:31;100285.09;;;18.41;41.29
30598;BME280;17365;48.878;8.334;2023-04-30T12:04:56;100319.16;;;18.44;40.27
30598;BME280;17365;48.878;8.334;2023-04-30T12:07:22;100272.13;;;18.04;40.54
30598;BME280;17365;48.878;8.334;2023-04-30T12:09:51;100295.94;;;18.61;40.44
30598;BME280;17365;48.878;8.334;2023-04-30T12:12:29;100283.13;;;18.49;40.21
30598;BME280;17365;48.878;8.334;2023-04-30T12:14:54;100281.88;;;18.64;40.24
30598;BME280;17365;48.878;8.334;2023-04-30T12:17:33;100280.34;;;18.86;39.86
30598;BME280;17365;48.878;8.334;2023-04-30T12:19:58;100283.28;;;18.43;39.13
30598;BME280;17365;48.878;8.334;2023-04-30T12:22:23;100286.41;;;18.57;39.64
30598;BME280;17365;48.878;8.334;2023-04-30T12:24:49;100278.31;;;18.00;40.51
30598;BME280;17365;48.878;8.334;2023-04-30T12:27:14;100280.31;;;18.55;40.22
30598;BME280;17365;48.878;8.334;2023-04-30T12:29:39;100278.41;;;18.62;38.51
30598;BME280;17365;48.878;8.334;2023-04-30T12:32:08;100277.91;;;18.17;40.37
30598;BME280;17365;48.878;8.334;2023-04-30T12:34:33;100275.75;;;18.31;40.13
30598;BME280;17365;48.878;8.334;2023-04-30T12:37:01;100270.16;;;18.43;40.02
30598;BME280;17365;48.878;8.334;2023-04-30T12:39:31;100267.38;;;18.49;40.38
30598;BME280;17365;48.878;8.334;2023-04-30T12:41:58;100270.91;;;18.79;39.70
30598;BME280;17365;48.878;8.334;2023-04-30T12:44:24;100264.69;;;18.51;39.30
30598;BME280;17365;48.878;8.334;2023-04-30T12:46:51;100261.28;;;19.08;38.46
30598;BME280;17365;48.878;8.334;2023-04-30T12:49:25;100273.03;;;18.96;38.79
30598;BME280;17365;48.878;8.334;2023-04-30T12:51:50;100251.81;;;19.02;38.75
30598;BME280;17365;48.878;8.334;2023-04-30T12:54:25;100256.22;;;18.41;38.62
30598;BME280;17365;48.878;8.334;2023-04-30T12:57:07;100243.31;;;18.94;37.83
30598;BME280;17365;48.878;8.334;2023-04-30T12:59:33;100268.81;;;18.92;37.40